createdAt,value
2022-09-23T11:17:05.939Z,99.99
2022-09-23T11:18:05.741Z,99.99
2022-09-23T11:19:05.741Z,99.99
2022-09-23T11:20:05.716Z,99.99
2022-09-23T11:21:05.708Z,99.99
2022-09-23T11:22:05.702Z,99.99
2022-09-23T11:23:05.684Z,99.99
2022-09-23T11:24:05.727Z,99.99
2022-09-23T11:25:05.664Z,99.99
2022-09-23T11:26:05.628Z,99.99
2022-09-23T11:27:05.636Z,99.99
2022-09-23T11:28:05.603Z,99.99
2022-09-23T11:29:05.866Z,99.99
2022-09-23T11:30:05.571Z,99.99
2022-09-23T11:31:05.751Z,99.99
2022-09-23T11:32:05.556Z,99.99
2022-09-23T11:33:05.584Z,99.99
2022-09-23T11:34:05.526Z,99.99
2022-09-23T11:35:05.506Z,99.99
2022-09-23T11:36:05.484Z,99.99
2022-09-23T11:37:05.480Z,99.84
2022-09-23T11:38:05.470Z,98.97
2022-09-23T11:39:05.440Z,99.64
2022-09-23T11:40:05.469Z,99.16
2022-09-23T11:41:05.472Z,99.99
2022-09-23T11:42:05.423Z,99.11
2022-09-23T11:43:05.393Z,98.82
2022-09-23T11:44:05.462Z,98.54
2022-09-23T11:45:05.368Z,97.76
2022-09-23T11:46:05.374Z,97.42
2022-09-23T11:47:05.345Z,98.58
2022-09-23T11:48:05.316Z,99.84
2022-09-23T11:49:05.419Z,97.67
2022-09-23T11:50:05.297Z,98.44
2022-09-23T11:51:05.285Z,98.00
2022-09-23T11:52:05.276Z,98.00
2022-09-23T11:53:05.250Z,96.22
2022-09-23T11:54:05.269Z,94.87
2022-09-23T11:55:13.053Z,92.65
2022-09-23T11:56:05.219Z,92.08
2022-09-23T11:57:05.216Z,91.88
2022-09-23T11:58:07.896Z,91.83
2022-09-23T11:59:05.392Z,92.71
2022-09-23T12:00:05.177Z,93.43
2022-09-23T12:01:05.141Z,94.10
2022-09-23T12:02:16.322Z,93.33
2022-09-23T12:03:06.458Z,93.81
2022-09-23T12:04:17.473Z,94.01
2022-09-23T12:05:05.202Z,94.29
2022-09-23T12:06:05.087Z,95.84
2022-09-23T12:07:05.071Z,95.94
2022-09-23T12:08:05.075Z,94.49
2022-09-23T12:09:05.037Z,94.39
2022-09-23T12:10:05.035Z,93.52
2022-09-23T12:11:05.009Z,93.48
2022-09-23T12:12:05.013Z,94.20
2022-09-23T12:13:05.007Z,92.36
2022-09-23T12:14:04.972Z,91.25
2022-09-23T12:15:04.959Z,92.41
2022-09-23T12:16:04.955Z,92.50
2022-09-23T12:17:04.953Z,90.91
2022-09-23T12:18:04.936Z,89.47
2022-09-23T12:19:04.906Z,90.67
2022-09-23T12:20:04.894Z,91.98
2022-09-23T12:21:04.959Z,94.15
2022-09-23T12:22:04.866Z,96.80
2022-09-23T12:23:04.865Z,91.59
2022-09-23T12:24:04.841Z,88.89
2022-09-23T12:25:04.839Z,90.77
2022-09-23T12:26:04.828Z,92.74
2022-09-23T12:27:04.801Z,91.35
2022-09-23T12:28:04.812Z,91.69
2022-09-23T12:29:04.778Z,92.85
2022-09-23T12:30:04.765Z,94.58
2022-09-23T12:31:04.795Z,94.78
2022-09-23T12:32:04.740Z,94.10
2022-09-23T12:33:04.748Z,94.48
2022-09-23T12:34:04.713Z,97.33
2022-09-23T12:35:04.701Z,95.40
2022-09-23T12:36:04.694Z,94.92
2022-09-23T12:37:04.676Z,97.38
2022-09-23T12:38:04.682Z,98.34
2022-09-23T12:39:04.658Z,95.93
2022-09-23T12:40:04.694Z,97.77
2022-09-23T12:41:04.625Z,96.89
2022-09-23T12:42:04.612Z,94.63
2022-09-23T12:43:04.621Z,93.76
2022-09-23T12:44:04.585Z,96.27
2022-09-23T12:45:04.574Z,96.99
2022-09-23T12:46:04.588Z,94.48
2022-09-23T12:47:04.563Z,96.03
2022-09-23T12:48:04.557Z,95.40
2022-09-23T12:49:04.529Z,94.63
2022-09-23T12:50:04.518Z,92.99
2022-09-23T12:51:04.507Z,96.99
2022-09-23T12:52:04.482Z,95.45
2022-09-23T12:53:04.497Z,91.01
2022-09-23T12:54:04.459Z,88.25
2022-09-23T12:55:04.444Z,89.22
2022-09-23T12:56:04.441Z,90.43
2022-09-23T12:57:04.420Z,89.75
2022-09-23T12:58:04.425Z,89.42
2022-09-23T12:59:04.405Z,89.76
2022-09-23T13:00:04.387Z,90.15
2022-09-23T13:01:04.442Z,90.29
2022-09-23T13:02:04.433Z,90.44
2022-09-23T13:03:04.357Z,90.05
2022-09-23T13:04:04.340Z,93.95
2022-09-23T13:05:04.319Z,97.04
2022-09-23T13:06:04.304Z,93.43
2022-09-23T13:07:04.306Z,93.71
2022-09-23T13:08:04.291Z,93.86
2022-09-23T13:09:04.271Z,94.48
2022-09-23T13:10:04.263Z,95.21
2022-09-23T13:13:58.271Z,94.39
2022-09-23T13:14:58.238Z,95.36
2022-09-23T13:15:58.227Z,95.74
2022-09-23T13:16:58.316Z,97.62
2022-09-23T13:17:58.221Z,99.26
2022-09-23T13:18:58.186Z,98.58
2022-09-23T13:19:58.178Z,98.58
2022-09-23T13:20:58.167Z,95.89
2022-09-23T13:21:58.147Z,95.45
2022-09-23T13:22:58.156Z,94.39
2022-09-23T13:23:58.126Z,95.93
2022-09-23T13:24:58.106Z,96.03
2022-09-23T13:25:58.093Z,93.66
2022-09-23T13:40:19.745Z,99.02
2022-09-23T13:44:00.889Z,98.82
2022-09-23T13:45:00.828Z,99.99
2022-09-23T13:46:00.832Z,99.99
2022-09-23T13:47:00.774Z,98.58
2022-09-23T13:48:00.775Z,99.45
2022-09-23T13:49:00.749Z,98.68
2022-09-23T13:50:00.749Z,98.68
